Time;durP1;ratioP1;P1;durP2;ratioP2;P2;SDS_P1;SDS_P2;PMS_P1;PMS_P2;Temp;Humidity;BMP_temperature;BMP_pressure;BME280_temperature;BME280_humidity;BME280_pressure;Samples;Min_cycle;Max_cycle;Signal;HPM_P1;HPM_P2
2022/01/18 00:01:30;;;;;;;59.33;17.63;;;;;;;2.57;100.00;103647.63;6503814;23;20010;-80
2022/01/18 00:04:02;;;;;;;56.75;19.80;;;;;;;2.67;100.00;103645.75;6477031;23;20032;-79
2022/01/18 00:06:35;;;;;;;64.57;20.90;;;;;;;2.80;100.00;103643.97;6504423;23;20007;-79
2022/01/18 00:09:07;;;;;;;65.32;23.10;;;;;;;2.93;100.00;103651.72;6503675;23;20383;-77
2022/01/18 00:12:13;;;;;;;61.43;19.83;;;;;;;2.99;100.00;103652.09;6505016;23;20027;-80
2022/01/18 00:14:42;;;;;;;64.80;18.73;;;;;;;3.11;100.00;103654.59;6503193;23;20429;-80
2022/01/18 00:19:54;;;;;;;41.03;16.30;;;;;;;3.22;100.00;103651.00;6515051;23;20016;-79
2022/01/18 00:22:28;;;;;;;44.55;16.02;;;;;;;3.26;100.00;103652.97;6504754;23;20087;-80
2022/01/18 00:25:01;;;;;;;43.97;14.75;;;;;;;3.28;100.00;103643.66;6504232;23;20062;-77
2022/01/18 00:27:32;;;;;;;;;;;;;;;3.41;100.00;103642.75;6504637;23;20004;-78
2022/01/18 00:30:26;;;;;;;46.13;14.30;;;;;;;3.39;100.00;103646.91;6503449;23;20002;-79
2022/01/18 00:35:51;;;;;;;38.38;14.38;;;;;;;3.44;100.00;103663.53;6376791;23;20539;-79
2022/01/18 00:38:44;;;;;;;54.28;15.05;;;;;;;3.51;100.00;103664.84;6376252;23;20020;-80
2022/01/18 00:41:18;;;;;;;56.35;16.40;;;;;;;3.53;100.00;103668.41;6376651;23;20006;-78
2022/01/18 00:43:52;;;;;;;46.60;14.27;;;;;;;3.49;100.00;103665.53;6376416;23;20478;-80
2022/01/18 00:46:24;;;;;;;40.10;13.45;;;;;;;3.56;100.00;103666.03;6376687;23;20010;-78
2022/01/18 00:48:58;;;;;;;57.63;15.37;;;;;;;3.56;100.00;103671.19;6376203;23;20040;-78
2022/01/18 00:51:36;;;;;;;46.42;15.65;;;;;;;3.60;100.00;103680.00;6376285;23;20047;-75
2022/01/18 00:54:10;;;;;;;46.17;14.35;;;;;;;3.57;100.00;103678.09;6376219;23;20451;-75
2022/01/18 00:56:43;;;;;;;52.72;14.25;;;;;;;3.64;100.00;103682.00;6376768;23;20012;-77
2022/01/18 00:59:14;;;;;;;55.38;14.90;;;;;;;3.62;100.00;103684.47;6376577;23;20042;-77
2022/01/18 01:01:46;;;;;;;59.33;16.20;;;;;;;3.60;100.00;103686.03;6377150;23;20006;-78
2022/01/18 01:04:21;;;;;;;55.27;16.47;;;;;;;3.62;100.00;103679.31;6378417;23;20012;-79
2022/01/18 01:06:52;;;;;;;49.58;16.40;;;;;;;3.62;100.00;103684.47;6378381;23;20009;-74
2022/01/18 01:09:23;;;;;;;52.60;17.03;;;;;;;3.69;100.00;103684.81;6378424;23;20515;-81
2022/01/18 01:11:55;;;;;;;48.93;16.50;;;;;;;3.71;100.00;103673.81;6397892;23;20042;-79
2022/01/18 01:14:28;;;;;;;51.50;15.87;;;;;;;3.72;100.00;103674.69;6506171;23;20014;-77
2022/01/18 01:36:45;;;;;;;52.72;16.67;;;;;;;3.79;100.00;103672.59;6516201;23;20019;-78
2022/01/18 01:42:26;;;;;;;61.55;18.60;;;;;;;3.81;100.00;103680.44;6506003;23;20024;-75
2022/01/18 01:44:58;;;;;;;59.35;17.13;;;;;;;3.83;100.00;103673.66;6505907;23;20030;-76
2022/01/18 01:47:36;;;;;;;;;;;;;;;3.91;100.00;103675.06;6506144;23;20437;-76
2022/01/18 01:50:16;;;;;;;63.55;17.85;;;;;;;3.86;100.00;103671.28;6505123;23;19989;-76
2022/01/18 01:52:50;;;;;;;55.95;16.65;;;;;;;3.90;100.00;103675.84;6506261;23;20015;-73
2022/01/18 01:55:23;;;;;;;61.35;16.20;;;;;;;3.92;100.00;103669.09;6506078;23;20000;-76
2022/01/18 01:57:55;;;;;;;52.35;16.38;;;;;;;3.94;100.00;103671.75;6506513;23;20107;-74
2022/01/18 02:00:26;;;;;;;41.50;14.83;;;;;;;3.96;100.00;103673.66;6505965;23;20019;-74
2022/01/18 02:02:57;;;;;;;53.30;16.53;;;;;;;3.96;100.00;103676.22;6505959;23;20000;-75
2022/01/18 02:05:29;;;;;;;51.70;15.83;;;;;;;3.96;100.00;103678.81;6505589;23;20030;-77
2022/01/18 02:08:00;;;;;;;64.70;17.40;;;;;;;3.99;100.00;103680.66;6505546;23;20004;-73
2022/01/18 02:10:31;;;;;;;59.53;15.87;;;;;;;3.98;100.00;103681.47;6507052;23;20000;-72
2022/01/18 02:13:07;;;;;;;58.47;15.17;;;;;;;4.00;100.00;103678.19;6507560;23;20107;-75
2022/01/18 02:15:47;;;;;;;65.47;18.05;;;;;;;3.95;100.00;103684.75;6506534;23;20000;-79
2022/01/18 02:23:58;;;;;;;55.53;17.08;;;;;;;4.06;100.00;103684.50;6505853;23;20013;-72
2022/01/18 02:26:30;;;;;;;55.37;16.77;;;;;;;4.07;100.00;103678.56;6505607;23;20004;-79
2022/01/18 02:29:04;;;;;;;54.17;18.55;;;;;;;4.09;100.00;103683.03;6505258;23;20013;-80
2022/01/18 02:31:37;;;;;;;54.38;16.92;;;;;;;4.08;100.00;103682.94;6505461;23;20058;-79
2022/01/18 02:34:12;;;;;;;45.47;16.48;;;;;;;4.08;100.00;103681.22;6504968;23;20131;-78
2022/01/18 02:36:45;;;;;;;49.40;16.77;;;;;;;4.04;100.00;103676.66;6504541;23;20001;-80
2022/01/18 02:39:23;;;;;;;57.55;15.50;;;;;;;4.03;100.00;103674.91;6504607;23;20056;-74
2022/01/18 02:42:04;;;;;;;50.15;17.63;;;;;;;4.05;100.00;103664.69;6504963;23;20004;-77
2022/01/18 02:44:36;;;;;;;51.30;16.50;;;;;;;4.05;100.00;103660.38;6504767;23;20004;-74
2022/01/18 02:47:07;;;;;;;53.33;18.40;;;;;;;4.09;100.00;103658.88;6504727;23;20066;-77
2022/01/18 02:49:39;;;;;;;56.03;18.00;;;;;;;4.13;100.00;103660.88;6504730;23;20004;-72
2022/01/18 02:52:10;;;;;;;48.20;16.67;;;;;;;4.12;100.00;103661.66;6504502;23;20070;-74
2022/01/18 02:54:42;;;;;;;40.27;16.27;;;;;;;4.10;100.00;103666.72;6504893;23;20000;-74
2022/01/18 02:57:15;;;;;;;48.07;16.07;;;;;;;4.09;100.00;103670.13;6504294;23;20000;-78
2022/01/18 02:59:50;;;;;;;45.30;16.20;;;;;;;4.10;100.00;103669.31;6504509;23;20004;-75
2022/01/18 03:05:16;;;;;;;47.63;15.40;;;;;;;4.07;100.00;103660.50;6504228;23;20040;-76
2022/01/18 03:07:47;;;;;;;48.15;17.83;;;;;;;4.08;100.00;103664.88;6504461;23;20008;-80
2022/01/18 03:10:19;;;;;;;56.23;19.07;;;;;;;4.03;100.00;103662.00;6504302;23;20027;-74
2022/01/18 03:12:50;;;;;;;44.10;17.07;;;;;;;3.99;100.00;103657.44;6504235;23;20026;-75
2022/01/18 03:15:21;;;;;;;52.83;17.20;;;;;;;4.00;100.00;103661.81;6477667;23;20095;-76
2022/01/18 03:17:53;;;;;;;57.67;18.37;;;;;;;4.04;100.00;103657.72;6504245;23;20139;-80
2022/01/18 03:20:25;;;;;;;60.57;19.03;;;;;;;3.99;100.00;103670.34;6504969;23;20332;-80
2022/01/18 03:22:56;;;;;;;49.20;19.83;;;;;;;4.03;100.00;103676.59;6504225;23;20028;-80
2022/01/18 03:25:39;;;;;;;42.57;17.50;;;;;;;4.02;100.00;103675.69;6503634;23;20004;-80
2022/01/18 03:28:10;;;;;;;51.88;18.05;;;;;;;3.99;100.00;103673.84;6504244;23;20027;-73
2022/01/18 03:30:44;;;;;;;45.40;16.80;;;;;;;4.04;100.00;103676.66;6503659;23;20004;-79
2022/01/18 03:33:18;;;;;;;45.05;17.70;;;;;;;4.10;100.00;103681.31;6504488;23;20000;-79
2022/01/18 03:35:52;;;;;;;53.20;18.13;;;;;;;4.08;100.00;103680.34;6504049;23;20078;-75
2022/01/18 03:38:29;;;;;;;49.85;18.92;;;;;;;4.06;100.00;103684.50;6503885;23;20097;-74
2022/01/18 03:41:03;;;;;;;43.85;17.75;;;;;;;4.09;100.00;103689.84;6504095;23;20433;-74
2022/01/18 03:43:35;;;;;;;47.63;18.70;;;;;;;4.03;100.00;103674.91;6504086;23;20327;-78
2022/01/18 03:46:06;;;;;;;53.17;19.03;;;;;;;3.97;100.00;103666.78;6504314;23;20000;-75
2022/01/18 03:48:39;;;;;;;52.53;19.73;;;;;;;3.98;100.00;103668.56;6504632;23;20227;-78
2022/01/18 03:51:10;;;;;;;47.50;19.52;;;;;;;3.95;100.00;103671.84;6504158;23;20102;-73
2022/01/18 03:53:41;;;;;;;38.97;19.73;;;;;;;4.02;100.00;103683.44;6503409;23;20047;-73
2022/01/18 03:56:13;;;;;;;41.20;18.97;;;;;;;4.04;100.00;103684.41;6503746;23;20004;-73
2022/01/18 03:58:44;;;;;;;46.07;18.80;;;;;;;4.05;100.00;103695.66;6504477;23;20000;-75
2022/01/18 04:01:15;;;;;;;45.13;18.13;;;;;;;4.04;100.00;103691.28;6503995;23;20031;-76
2022/01/18 04:03:47;;;;;;;36.57;18.83;;;;;;;4.03;100.00;103694.69;6503811;23;20012;-78
2022/01/18 04:06:19;;;;;;;43.70;18.55;;;;;;;4.00;100.00;103692.78;6504469;23;20010;-78
2022/01/18 04:08:50;;;;;;;40.57;20.27;;;;;;;3.95;100.00;103689.03;6503497;23;20440;-73
2022/01/18 04:11:21;;;;;;;41.47;19.63;;;;;;;3.98;100.00;103695.28;6503758;23;20079;-76
2022/01/18 04:13:53;;;;;;;43.33;19.03;;;;;;;3.94;100.00;103697.56;6503542;23;20035;-74
2022/01/18 04:16:24;;;;;;;43.17;20.10;;;;;;;3.92;100.00;103692.31;6504140;23;20031;-75
2022/01/18 04:19:22;;;;;;;44.33;19.93;;;;;;;3.95;100.00;103702.81;6503531;23;19997;-75
2022/01/18 04:27:32;;;;;;;43.45;19.67;;;;;;;3.87;100.00;103704.03;6503827;23;20008;-73
2022/01/18 04:30:05;;;;;;;41.58;21.85;;;;;;;3.90;100.00;103700.78;6503166;23;20008;-71
2022/01/18 04:32:37;;;;;;;43.92;20.67;;;;;;;3.89;100.00;103704.13;6503988;23;20377;-74
2022/01/18 04:35:08;;;;;;;45.70;20.93;;;;;;;3.83;100.00;103699.47;6503807;23;20028;-80
2022/01/18 04:37:40;;;;;;;38.87;19.83;;;;;;;3.82;100.00;103703.75;6503551;23;20035;-76
2022/01/18 04:40:15;;;;;;;48.20;23.60;;;;;;;3.74;100.00;103704.09;6503749;23;20000;-74
2022/01/18 04:51:15;;;;;;;53.80;23.45;;;;;;;3.81;100.00;103701.06;6376180;23;20018;-75
2022/01/18 04:53:54;;;;;;;42.73;21.97;;;;;;;3.78;100.00;103706.03;6375880;23;20012;-79
2022/01/18 04:57:51;;;;;;;54.20;22.10;;;;;;;3.87;100.00;103705.75;6375988;23;20017;-73
2022/01/18 04:59:20;;;;;;;55.25;22.50;;;;;;;3.80;100.00;103704.44;6376117;23;20474;-80
2022/01/18 05:01:52;;;;;;;49.90;24.55;;;;;;;3.74;100.00;103704.09;6376856;23;20005;-76
2022/01/18 05:04:23;;;;;;;54.17;24.10;;;;;;;3.74;100.00;103709.25;6377678;23;20053;-80
2022/01/18 05:06:59;;;;;;;59.57;23.73;;;;;;;3.73;100.00;103708.34;6377726;23;20032;-78
2022/01/18 05:09:31;;;;;;;48.35;24.52;;;;;;;3.69;100.00;103711.53;6377212;23;20009;-81
2022/01/18 05:12:12;;;;;;;53.70;23.80;;;;;;;3.72;100.00;103711.72;6377090;23;20097;-73
2022/01/18 05:14:45;;;;;;;49.38;23.88;;;;;;;3.76;100.00;103728.28;6376452;23;20010;-76
2022/01/18 05:20:25;;;;;;;57.42;23.88;;;;;;;3.79;100.00;103721.63;6376196;23;20332;-77
2022/01/18 05:23:00;;;;;;;54.05;25.15;;;;;;;3.75;100.00;103716.19;6375735;23;20381;-79
2022/01/18 05:25:33;;;;;;;58.78;25.90;;;;;;;3.74;100.00;103717.88;6457644;23;20012;-75
2022/01/18 05:28:06;;;;;;;62.58;25.95;;;;;;;3.75;100.00;103719.66;6503010;23;20027;-77
2022/01/18 05:30:38;;;;;;;60.00;24.65;;;;;;;3.71;100.00;103716.78;6503633;23;20027;-78
2022/01/18 05:33:09;;;;;;;56.38;25.25;;;;;;;3.71;100.00;103715.09;6503275;23;20006;-76
2022/01/18 05:35:41;;;;;;;66.17;24.53;;;;;;;3.75;100.00;103716.19;6503280;23;20004;-78
2022/01/18 05:38:12;;;;;;;55.37;24.17;;;;;;;3.71;100.00;103721.97;6503688;23;20484;-79
2022/01/18 05:40:44;;;;;;;58.50;24.93;;;;;;;3.69;100.00;103729.59;6502929;23;20000;-76
2022/01/18 05:43:16;;;;;;;60.90;25.40;;;;;;;3.67;100.00;103718.28;6503877;23;20071;-78
2022/01/18 05:45:47;;;;;;;69.78;26.42;;;;;;;3.72;100.00;103722.06;6502655;23;20549;-78
2022/01/18 05:48:18;;;;;;;61.77;24.40;;;;;;;3.72;100.00;103710.81;6503761;23;20000;-79
2022/01/18 05:50:51;;;;;;;75.90;24.13;;;;;;;3.72;100.00;103709.16;6505108;23;20004;-79
2022/01/18 05:53:23;;;;;;;;;;;;;;;3.79;100.00;103708.72;6505949;23;20008;-76
2022/01/18 05:55:54;;;;;;;66.25;22.85;;;;;;;3.70;100.00;103710.72;6505015;23;19907;-78
2022/01/18 05:58:25;;;;;;;64.73;23.13;;;;;;;3.76;100.00;103712.81;6505118;23;20008;-75
2022/01/18 06:00:58;;;;;;;64.80;21.80;;;;;;;3.75;100.00;103711.94;6504692;23;20008;-79
2022/01/18 06:03:38;;;;;;;55.38;22.98;;;;;;;3.75;100.00;103711.00;6504924;23;20333;-79
2022/01/18 06:08:59;;;;;;;58.83;22.08;;;;;;;3.79;100.00;103711.31;6505390;23;20008;-80
2022/01/18 06:11:31;;;;;;;58.43;23.30;;;;;;;3.79;100.00;103713.00;6505374;23;20330;-81
2022/01/18 06:14:02;;;;;;;56.60;21.67;;;;;;;3.77;100.00;103709.44;6505274;23;20011;-80
2022/01/18 06:16:34;;;;;;;62.57;21.83;;;;;;;3.76;100.00;103712.81;6505531;23;20004;-80
2022/01/18 06:19:05;;;;;;;65.57;22.90;;;;;;;3.74;100.00;103714.41;6505290;23;20005;-79
2022/01/18 06:21:37;;;;;;;57.77;22.17;;;;;;;3.75;100.00;103713.59;6505684;23;20087;-75
2022/01/18 06:24:09;;;;;;;51.83;21.17;;;;;;;3.78;100.00;103716.38;6505039;23;20004;-77
2022/01/18 06:26:41;;;;;;;62.50;22.35;;;;;;;3.80;100.00;103719.94;6504903;23;20004;-80
2022/01/18 06:29:12;;;;;;;55.77;21.83;;;;;;;3.84;100.00;103717.63;6505040;23;20014;-80
2022/01/18 06:31:43;;;;;;;54.50;20.43;;;;;;;3.83;100.00;103714.97;6505339;23;20414;-80
2022/01/18 06:34:15;;;;;;;55.03;22.10;;;;;;;3.82;100.00;103720.94;6505452;23;20061;-79
2022/01/18 06:36:46;;;;;;;48.53;20.23;;;;;;;3.86;100.00;103715.16;6505407;23;20083;-81
2022/01/18 06:39:17;;;;;;;57.40;21.70;;;;;;;3.89;100.00;103714.47;6505548;23;20398;-80
2022/01/18 06:41:49;;;;;;;68.93;23.43;;;;;;;3.90;100.00;103716.25;6505219;23;20011;-81
2022/01/18 06:44:22;;;;;;;64.87;21.40;;;;;;;3.95;100.00;103714.84;6505159;23;20000;-80
2022/01/18 06:46:54;;;;;;;52.55;21.02;;;;;;;3.95;100.00;103714.84;6505515;23;20007;-79
2022/01/18 06:49:25;;;;;;;59.43;20.77;;;;;;;3.96;100.00;103709.78;6505046;23;20010;-80
2022/01/18 06:51:56;;;;;;;50.57;20.93;;;;;;;3.97;100.00;103714.13;6505650;23;20518;-79
2022/01/18 06:54:28;;;;;;;66.80;22.93;;;;;;;3.95;100.00;103712.25;6505654;23;20001;-82
2022/01/18 06:56:59;;;;;;;55.17;22.27;;;;;;;3.96;100.00;103720.09;6504967;23;20061;-79
2022/01/18 06:59:31;;;;;;;68.93;23.07;;;;;;;3.96;100.00;103724.34;6504693;23;20000;-76
2022/01/18 07:02:03;;;;;;;57.17;24.07;;;;;;;3.90;100.00;103730.03;6504850;23;20035;-77
2022/01/18 07:04:35;;;;;;;65.43;25.50;;;;;;;3.86;100.00;103728.06;6504955;23;20372;-77
2022/01/18 07:07:06;;;;;;;58.93;22.57;;;;;;;3.92;100.00;103725.88;6504610;23;20000;-75
2022/01/18 07:09:37;;;;;;;51.07;21.37;;;;;;;3.95;100.00;103732.91;6504279;23;19996;-76
2022/01/18 07:12:11;;;;;;;53.03;24.00;;;;;;;3.89;100.00;103730.81;6504175;23;20012;-78
2022/01/18 07:14:42;;;;;;;60.55;23.02;;;;;;;3.90;100.00;103727.47;6504806;23;20011;-77
2022/01/18 07:17:14;;;;;;;64.17;24.83;;;;;;;3.88;100.00;103731.66;6504804;23;20001;-75
2022/01/18 07:19:45;;;;;;;66.07;24.03;;;;;;;3.92;100.00;103735.31;6504079;23;20086;-79
2022/01/18 07:22:16;;;;;;;62.70;24.10;;;;;;;3.90;100.00;103742.94;6504165;23;20390;-79
2022/01/18 07:24:50;;;;;;;62.17;23.53;;;;;;;3.87;100.00;103732.44;6503695;23;20011;-78
2022/01/18 07:27:22;;;;;;;55.88;22.02;;;;;;;3.86;100.00;103740.97;6503753;23;20058;-78
2022/01/18 07:29:53;;;;;;;58.73;23.23;;;;;;;3.86;100.00;103748.69;6475743;23;20376;-79
2022/01/18 07:32:25;;;;;;;61.63;25.30;;;;;;;3.87;100.00;103742.75;6503921;23;20004;-74
2022/01/18 07:34:57;;;;;;;63.47;25.13;;;;;;;3.87;100.00;103747.03;6504301;23;20365;-78
2022/01/18 07:37:29;;;;;;;66.43;26.30;;;;;;;3.83;100.00;103751.09;6503749;23;20516;-79
2022/01/18 07:40:01;;;;;;;48.90;22.87;;;;;;;3.86;100.00;103746.13;6503858;23;20012;-79
2022/01/18 07:42:32;;;;;;;58.20;26.47;;;;;;;3.82;100.00;103749.31;6503911;23;20376;-79
2022/01/18 07:45:04;;;;;;;61.33;26.43;;;;;;;3.83;100.00;103743.34;6503927;23;20006;-78
2022/01/18 07:47:36;;;;;;;61.33;24.60;;;;;;;3.82;100.00;103750.19;6504372;23;20034;-78
2022/01/18 07:50:08;;;;;;;56.10;23.10;;;;;;;3.84;100.00;103755.47;6503911;23;20031;-78
2022/01/18 07:52:39;;;;;;;48.10;22.30;;;;;;;3.88;100.00;103754.88;6503986;23;20004;-79
2022/01/18 07:55:11;;;;;;;50.70;23.13;;;;;;;3.92;100.00;103749.09;6505061;23;20000;-78
2022/01/18 07:57:43;;;;;;;43.53;19.90;;;;;;;3.96;100.00;103758.81;6504909;23;20079;-77
2022/01/18 08:00:16;;;;;;;52.15;23.52;;;;;;;3.97;100.00;103750.25;6505037;23;20027;-78
2022/01/18 08:02:47;;;;;;;48.28;22.42;;;;;;;3.98;100.00;103752.06;6504356;23;20420;-78
2022/01/18 08:05:19;;;;;;;59.40;23.30;;;;;;;4.00;100.00;103749.56;6503485;23;20004;-80
2022/01/18 08:07:50;;;;;;;43.97;22.53;;;;;;;4.03;100.00;103760.09;6503836;23;20073;-78
2022/01/18 08:10:23;;;;;;;53.67;22.40;;;;;;;4.07;100.00;103766.31;6503589;23;20009;-74
2022/01/18 08:12:54;;;;;;;51.80;22.52;;;;;;;4.11;100.00;103764.03;6503278;23;20004;-78
2022/01/18 08:15:26;;;;;;;49.53;20.87;;;;;;;4.14;100.00;103768.50;6503683;23;20012;-79
2022/01/18 08:17:58;;;;;;;42.93;20.37;;;;;;;4.18;100.00;103760.13;6504032;23;20283;-77
2022/01/18 08:20:30;;;;;;;46.95;20.30;;;;;;;4.20;100.00;103759.44;6503760;23;20011;-79
2022/01/18 08:23:01;;;;;;;46.53;18.80;;;;;;;4.20;100.00;103759.44;6503645;23;20007;-77
2022/01/18 08:25:34;;;;;;;44.23;19.47;;;;;;;4.23;100.00;103755.25;6503617;23;20079;-78
2022/01/18 08:28:06;;;;;;;44.35;19.42;;;;;;;4.24;100.00;103759.63;6503425;23;20004;-78
2022/01/18 08:30:37;;;;;;;59.20;20.67;;;;;;;4.26;100.00;103758.03;6440310;23;20013;-79
2022/01/18 08:33:09;;;;;;;50.00;20.37;;;;;;;4.30;100.00;103750.56;6440547;23;20020;-77
2022/01/18 08:35:40;;;;;;;43.97;20.13;;;;;;;4.29;100.00;103756.50;6440078;23;20005;-78
2022/01/18 08:38:11;;;;;;;54.33;20.40;;;;;;;4.36;100.00;103745.78;6440677;23;20478;-77
2022/01/18 08:40:43;;;;;;;50.63;21.10;;;;;;;4.38;100.00;103749.34;6440300;23;20036;-78
2022/01/18 08:43:14;;;;;;;58.60;21.83;;;;;;;4.42;100.00;103753.00;6441050;23;20005;-79
2022/01/18 08:45:46;;;;;;;53.13;23.70;;;;;;;4.45;100.00;103749.72;6440531;23;20005;-74
2022/01/18 08:48:18;;;;;;;68.97;23.60;;;;;;;4.41;100.00;103758.94;6440397;23;20016;-77
2022/01/18 08:50:50;;;;;;;56.20;21.97;;;;;;;4.44;100.00;103751.38;6440241;23;20013;-79
2022/01/18 08:53:21;;;;;;;51.87;23.03;;;;;;;4.53;100.00;103761.41;6440481;23;20240;-76
2022/01/18 08:55:53;;;;;;;62.00;23.07;;;;;;;4.53;100.00;103761.41;6440429;23;20001;-74
2022/01/18 08:58:26;;;;;;;59.47;24.57;;;;;;;4.52;100.00;103757.94;6440329;23;20005;-79
2022/01/18 09:00:58;;;;;;;65.43;23.58;;;;;;;4.55;100.00;103757.19;6440459;23;20474;-79
2022/01/18 09:03:30;;;;;;;55.80;24.27;;;;;;;4.57;100.00;103756.50;6440078;23;20005;-79
2022/01/18 09:06:04;;;;;;;71.03;24.13;;;;;;;4.66;100.00;103760.44;6440211;23;20006;-77
2022/01/18 09:08:36;;;;;;;68.15;25.55;;;;;;;4.65;100.00;103756.94;6440302;23;20085;-77
2022/01/18 09:11:11;;;;;;;63.83;22.88;;;;;;;4.62;100.00;103759.38;6440260;23;20084;-75
2022/01/18 09:13:42;;;;;;;65.68;24.15;;;;;;;4.67;100.00;103765.69;6440208;23;20001;-77
2022/01/18 09:16:13;;;;;;;57.83;22.93;;;;;;;4.68;100.00;103764.88;6440597;23;20005;-77
2022/01/18 09:18:47;;;;;;;61.13;24.03;;;;;;;4.73;100.00;103771.22;6440572;23;20008;-79
2022/01/18 09:21:19;;;;;;;56.90;23.65;;;;;;;4.83;100.00;103771.75;6440799;23;20005;-78
2022/01/18 09:23:50;;;;;;;55.57;22.90;;;;;;;4.85;100.00;103767.59;6442070;23;20016;-75
2022/01/18 09:26:21;;;;;;;54.50;22.97;;;;;;;4.91;100.00;103771.41;6442708;23;20060;-76
2022/01/18 09:28:53;;;;;;;45.00;21.37;;;;;;;4.86;100.00;103780.59;6461106;23;20062;-76
2022/01/18 09:31:24;;;;;;;51.47;20.50;;;;;;;4.93;100.00;103781.84;6504906;23;20016;-78
2022/01/18 09:33:56;;;;;;;45.40;20.80;;;;;;;4.97;100.00;103778.63;6505469;23;20004;-75
2022/01/18 09:36:27;;;;;;;47.17;21.03;;;;;;;5.05;100.00;103781.66;6504925;23;20079;-77
2022/01/18 09:38:59;;;;;;;45.50;21.07;;;;;;;5.04;100.00;103779.88;6504793;23;20035;-77
2022/01/18 09:41:37;;;;;;;46.23;20.63;;;;;;;5.01;100.00;103788.34;6504923;23;20008;-78
2022/01/18 09:44:09;;;;;;;53.63;23.55;;;;;;;5.03;100.00;103783.28;6504804;23;20004;-80
2022/01/18 09:46:40;;;;;;;42.13;21.43;;;;;;;5.07;100.00;103786.13;6504559;23;20051;-77
2022/01/18 09:49:12;;;;;;;46.07;21.70;;;;;;;5.13;100.00;103784.69;6505182;23;20296;-79
2022/01/18 09:51:44;;;;;;;54.00;21.60;;;;;;;5.17;100.00;103787.56;6504863;23;20062;-77
2022/01/18 09:54:16;;;;;;;50.65;20.63;;;;;;;5.22;100.00;103791.28;6504924;23;20243;-75
2022/01/18 09:56:47;;;;;;;47.83;23.07;;;;;;;5.34;100.00;103791.09;6504506;23;20061;-77
2022/01/18 09:59:19;;;;;;;42.33;21.23;;;;;;;5.50;100.00;103789.41;6504556;23;20417;-79
2022/01/18 10:01:51;;;;;;;45.70;22.03;;;;;;;5.63;100.00;103795.31;6504325;23;20007;-77
2022/01/18 10:04:31;;;;;;;39.43;21.40;;;;;;;5.70;100.00;103791.41;6505139;23;20061;-79
2022/01/18 10:07:02;;;;;;;37.42;20.10;;;;;;;5.71;100.00;103792.28;6504630;23;20000;-77
2022/01/18 10:09:34;;;;;;;42.67;23.33;;;;;;;5.70;100.00;103791.41;6505106;23;20058;-78
2022/01/18 10:12:08;;;;;;;37.42;21.42;;;;;;;5.69;100.00;103786.16;6476867;23;20019;-77
2022/01/18 10:14:53;;;;;;;41.60;23.02;;;;;;;5.81;100.00;103784.22;6505175;23;20000;-78
2022/01/18 10:17:35;;;;;;;44.05;23.20;;;;;;;5.97;100.00;103797.25;6504273;23;20031;-79
2022/01/18 10:20:08;;;;;;;;;;;;;;;6.31;100.00;103792.97;6505352;23;20004;-79
2022/01/18 10:22:42;;;;;;;36.38;22.85;;;;;;;6.57;100.00;103792.66;6504496;22;19939;-78
2022/01/18 10:25:20;;;;;;;34.47;20.58;;;;;;;6.93;100.00;103792.75;6504557;23;20004;-79
2022/01/18 10:27:53;;;;;;;36.33;21.05;;;;;;;7.06;98.92;103789.06;6504636;23;20407;-79
2022/01/18 10:30:35;;;;;;;;;;;;;;;7.58;100.00;103793.38;6504946;23;20015;-78
2022/01/18 10:33:19;;;;;;;38.03;21.27;;;;;;;7.70;97.61;103782.66;6504375;23;19915;-78
2022/01/18 10:36:13;;;;;;;37.08;19.67;;;;;;;8.31;97.59;103775.91;6503913;23;20026;-79
2022/01/18 10:38:47;;;;;;;29.23;19.35;;;;;;;8.26;92.05;103780.00;6505100;23;20042;-78
2022/01/18 10:41:30;;;;;;;33.30;19.35;;;;;;;8.39;90.47;103778.03;6505662;23;20020;-79
2022/01/18 10:44:13;;;;;;;31.63;17.35;;;;;;;8.62;88.36;103770.38;6504938;23;20016;-79
2022/01/18 10:46:47;;;;;;;32.72;17.63;;;;;;;8.96;86.30;103774.41;6505239;23;20075;-76
2022/01/18 10:49:44;;;;;;;35.28;17.83;;;;;;;8.98;87.10;103772.75;6504875;23;20012;-79
2022/01/18 10:52:22;;;;;;;29.25;14.35;;;;;;;9.19;84.98;103762.34;6504500;23;20066;-80
2022/01/18 10:54:56;;;;;;;22.73;14.93;;;;;;;9.37;84.37;103751.81;6503761;23;20004;-79
2022/01/18 10:57:32;;;;;;;26.42;15.23;;;;;;;9.49;83.19;103754.88;6504855;23;20016;-77
2022/01/18 11:00:13;;;;;;;25.88;14.38;;;;;;;9.78;83.16;103749.91;6504923;23;20004;-79
2022/01/18 11:02:52;;;;;;;29.00;15.23;;;;;;;9.93;81.88;103753.91;6505083;23;20065;-80
2022/01/18 11:05:28;;;;;;;32.80;16.80;;;;;;;9.95;79.78;103747.94;6455293;23;20035;-78
2022/01/18 11:08:03;;;;;;;27.15;15.48;;;;;;;9.96;78.84;103748.81;6505040;23;20051;-77
2022/01/18 11:10:40;;;;;;;34.22;17.27;;;;;;;10.35;78.87;103738.09;6504697;23;20000;-80
2022/01/18 11:13:17;;;;;;;28.52;15.32;;;;;;;10.21;76.45;103743.69;6504172;23;20334;-79
2022/01/18 11:15:52;;;;;;;26.98;14.77;;;;;;;11.29;77.08;103739.53;6504202;23;20007;-79
2022/01/18 11:18:30;;;;;;;28.25;14.25;;;;;;;11.98;75.47;103743.38;6503944;23;20081;-79
2022/01/18 11:21:02;;;;;;;24.23;13.07;;;;;;;12.32;69.41;103743.44;6503849;23;20138;-79
2022/01/18 11:23:35;;;;;;;22.92;13.30;;;;;;;12.85;69.43;103745.69;6504505;23;20024;-73
2022/01/18 11:26:06;;;;;;;20.80;11.52;;;;;;;12.32;66.46;103738.22;6505673;23;20011;-80
2022/01/18 11:28:38;;;;;;;28.73;13.57;;;;;;;11.12;70.77;103741.63;6503770;23;20012;-78
2022/01/18 11:31:11;;;;;;;24.03;13.17;;;;;;;12.03;70.35;103736.53;6504033;23;20012;-79
2022/01/18 11:33:49;;;;;;;;;;;;;;;12.18;73.04;103743.03;6504396;23;20008;-81
2022/01/18 11:36:26;;;;;;;24.80;14.40;;;;;;;10.80;73.32;103737.03;6503828;23;20336;-78
2022/01/18 11:39:03;;;;;;;31.27;13.45;;;;;;;10.09;74.15;103735.41;6503517;23;20008;-78
2022/01/18 11:41:35;;;;;;;27.83;14.40;;;;;;;9.99;76.84;103734.19;6503334;23;20268;-77
2022/01/18 11:44:20;;;;;;;28.75;12.90;;;;;;;10.83;76.03;103727.56;6503816;23;20069;-80
2022/01/18 11:46:55;;;;;;;28.42;13.57;;;;;;;10.89;72.93;103722.56;6504043;23;20004;-78
2022/01/18 11:49:30;;;;;;;28.92;13.32;;;;;;;11.30;71.30;103728.25;6503093;23;20020;-79
2022/01/18 11:52:05;;;;;;;29.77;14.52;;;;;;;11.43;69.16;103715.56;6503661;23;20015;-77
2022/01/18 11:54:57;;;;;;;32.38;12.32;;;;;;;10.58;69.69;103721.53;6503998;23;20008;-80
2022/01/18 11:57:29;;;;;;;29.05;12.65;;;;;;;10.36;72.68;103719.03;6478026;23;20031;-78
2022/01/18 12:00:07;;;;;;;28.05;12.30;;;;;;;10.89;72.81;103725.19;6503829;23;19999;-78
2022/01/18 12:02:42;;;;;;;35.20;13.48;;;;;;;11.36;70.61;103726.66;6476531;23;20012;-80
2022/01/18 12:05:19;;;;;;;27.85;12.98;;;;;;;11.53;68.75;103719.31;6503467;23;20000;-79
2022/01/18 12:07:56;;;;;;;27.42;12.70;;;;;;;11.16;69.11;103720.78;6503959;23;20000;-77
2022/01/18 12:10:28;;;;;;;26.02;13.23;;;;;;;11.19;69.92;103715.69;6503775;23;20062;-76
2022/01/18 12:12:59;;;;;;;28.33;11.47;;;;;;;11.11;69.97;103708.50;6503468;23;20041;-78
2022/01/18 12:15:33;;;;;;;28.37;14.20;;;;;;;10.63;71.76;103703.44;6503581;23;20008;-77
2022/01/18 12:18:14;;;;;;;31.70;12.75;;;;;;;10.39;71.94;103693.06;6503565;23;20083;-78
2022/01/18 12:20:49;;;;;;;30.83;12.68;;;;;;;10.67;72.59;103707.91;6502861;23;20007;-80
2022/01/18 12:23:27;;;;;;;29.60;13.52;;;;;;;10.45;72.47;103708.94;6503950;23;20016;-74
2022/01/18 12:26:09;;;;;;;29.50;12.30;;;;;;;9.93;72.10;103707.00;6504748;23;20008;-77
2022/01/18 12:34:47;;;;;;;25.60;10.15;;;;;;;13.11;63.91;103683.47;6513261;23;20016;-78
2022/01/18 12:37:20;;;;;;;26.52;10.65;;;;;;;13.54;61.58;103691.41;6504012;23;20031;-77
2022/01/18 12:39:51;;;;;;;21.67;11.27;;;;;;;12.62;63.11;103697.97;6504414;23;20369;-76
2022/01/18 12:45:11;;;;;;;27.05;10.10;;;;;;;12.39;64.02;103690.44;6513800;23;20318;-74
2022/01/18 12:48:00;;;;;;;26.40;10.20;;;;;;;11.75;65.53;103687.78;6503119;23;20004;-78